Time;durP1;ratioP1;P1;durP2;ratioP2;P2;SDS_P1;SDS_P2;PMS_P1;PMS_P2;Temp;Humidity;BMP_temperature;BMP_pressure;BME280_temperature;BME280_humidity;BME280_pressure;Samples;Min_cycle;Max_cycle;Signal;HPM_P1;HPM_P2
2023/06/11 00:00:59;;;;;;;0.60;0.60;;;19.50;99.90;;;;;;5029070;28;20025;-57
2023/06/11 00:03:24;;;;;;;0.73;0.60;;;20.60;99.90;;;;;;5011388;28;20128;-55
2023/06/11 00:05:51;;;;;;;0.95;0.60;;;17.80;99.90;;;;;;5027357;28;20518;-56
2023/06/11 00:08:17;;;;;;;0.95;0.65;;;18.80;99.90;;;;;;5028200;28;20022;-59
2023/06/11 00:10:43;;;;;;;0.90;0.68;;;18.50;99.90;;;;;;5027804;28;20558;-56
2023/06/11 00:13:09;;;;;;;1.15;0.88;;;19.00;99.90;;;;;;5009688;28;20032;-59
2023/06/11 00:15:34;;;;;;;1.48;1.00;;;19.80;99.90;;;;;;5028980;28;20029;-57
2023/06/11 00:18:01;;;;;;;0.60;0.60;;;19.80;99.90;;;;;;5028109;28;20029;-56
2023/06/11 00:20:27;;;;;;;0.57;0.40;;;19.80;99.90;;;;;;5029037;28;20572;-57
2023/06/11 00:22:53;;;;;;;0.60;0.50;;;;;;;;;;5029845;28;20037;-57
2023/06/11 00:25:19;;;;;;;0.47;0.38;;;19.20;99.90;;;;;;5026794;28;20079;-56
2023/06/11 00:27:45;;;;;;;1.15;0.80;;;19.70;99.90;;;;;;5028254;28;20029;-56
2023/06/11 00:30:11;;;;;;;0.80;0.60;;;19.20;99.90;;;;;;5027774;28;20137;-56
2023/06/11 00:32:37;;;;;;;1.13;0.68;;;20.40;99.90;;;;;;5027882;28;20037;-56
2023/06/11 00:35:06;;;;;;;0.77;0.70;;;19.80;99.90;;;;;;5029575;28;20036;-55
2023/06/11 00:37:32;;;;;;;1.77;1.15;;;19.60;99.90;;;;;;5027547;28;20508;-55
2023/06/11 00:39:58;;;;;;;1.65;0.73;;;18.00;99.90;;;;;;5026607;28;20270;-56
2023/06/11 00:42:23;;;;;;;2.13;0.95;;;19.30;99.90;;;;;;5026746;28;20044;-56
2023/06/11 00:44:49;;;;;;;1.02;0.80;;;18.10;99.90;;;;;;5027753;28;20476;-56
2023/06/11 00:47:16;;;;;;;1.25;0.90;;;19.60;99.90;;;;;;5028856;28;20528;-58
2023/06/11 00:49:42;;;;;;;0.50;0.50;;;18.90;99.90;;;;;;5029232;28;20026;-56
2023/06/11 00:52:13;;;;;;;1.25;0.82;;;17.70;99.90;;;;;;5025306;28;20160;-55
2023/06/11 00:54:39;;;;;;;0.60;0.57;;;17.80;99.90;;;;;;5026344;28;20017;-55
2023/06/11 00:57:06;;;;;;;0.70;0.60;;;19.40;99.90;;;;;;5026355;28;20053;-57
2023/06/11 00:59:34;;;;;;;1.23;0.90;;;17.60;99.90;;;;;;5027299;28;20092;-57
2023/06/11 01:02:12;;;;;;;0.40;0.40;;;19.30;99.90;;;;;;5023370;28;20022;-56
2023/06/11 01:04:41;;;;;;;0.60;0.60;;;18.70;99.90;;;;;;5027094;28;20086;-57
2023/06/11 01:07:07;;;;;;;;;;;18.70;99.90;;;;;;5001098;28;20034;-56
2023/06/11 01:09:33;;;;;;;0.85;0.52;;;18.60;99.90;;;;;;5028355;28;19905;-56
2023/06/11 01:12:02;;;;;;;0.65;0.47;;;19.70;99.90;;;;;;5027689;28;20025;-55
2023/06/11 01:14:28;;;;;;;0.40;0.40;;;18.60;99.90;;;;;;5030025;28;20021;-55
2023/06/11 01:17:04;;;;;;;0.73;0.70;;;17.40;99.90;;;;;;5029922;28;20293;-56
2023/06/11 01:19:45;;;;;;;1.25;0.57;;;19.10;99.90;;;;;;5030294;28;20085;-56
2023/06/11 01:22:22;;;;;;;0.88;0.57;;;19.20;99.90;;;;;;5030079;28;20040;-55
2023/06/11 01:25:15;;;;;;;1.02;0.73;;;18.00;99.90;;;;;;5029919;28;20025;-56
2023/06/11 01:27:43;;;;;;;0.77;0.60;;;18.40;99.90;;;;;;5030051;28;20022;-56
2023/06/11 01:30:17;;;;;;;0.40;0.40;;;18.30;99.90;;;;;;5030057;28;20033;-55
2023/06/11 01:32:48;;;;;;;0.40;0.40;;;19.20;99.90;;;;;;5030188;28;20036;-56
2023/06/11 01:35:14;;;;;;;1.13;0.43;;;19.00;99.90;;;;;;5016999;28;20116;-54
2023/06/11 01:37:45;;;;;;;0.25;0.25;;;18.50;99.90;;;;;;5033459;28;20037;-55
2023/06/11 01:40:12;;;;;;;0.65;0.50;;;19.90;99.90;;;;;;5033297;28;20064;-56
2023/06/11 01:42:38;;;;;;;0.75;0.60;;;18.80;99.90;;;;;;5015432;28;20017;-55
2023/06/11 01:45:04;;;;;;;0.68;0.57;;;17.00;99.90;;;;;;5032580;28;20087;-57
2023/06/11 01:47:30;;;;;;;0.30;0.30;;;17.50;99.90;;;;;;5031926;28;20036;-58
2023/06/11 01:49:55;;;;;;;0.45;0.40;;;19.20;99.90;;;;;;5030131;28;20404;-57
2023/06/11 01:52:22;;;;;;;0.57;0.50;;;19.20;99.90;;;;;;5032061;28;20408;-57
2023/06/11 01:54:48;;;;;;;0.70;0.52;;;;;;;;;;5029135;28;20122;-58
2023/06/11 01:57:14;;;;;;;0.73;0.45;;;18.90;99.90;;;;;;5031143;28;20115;-55
2023/06/11 01:59:40;;;;;;;0.60;0.57;;;18.40;99.90;;;;;;5029180;28;20013;-57
2023/06/11 02:02:05;;;;;;;0.70;0.70;;;16.30;99.90;;;;;;5032590;28;20096;-57
2023/06/11 02:04:31;;;;;;;0.60;0.50;;;;;;;;;;5030698;28;20017;-57
2023/06/11 02:06:57;;;;;;;0.40;0.40;;;;;;;;;;5032099;28;20061;-57
2023/06/11 02:09:23;;;;;;;0.40;0.40;;;18.50;99.90;;;;;;5032939;28;20026;-59
2023/06/11 02:11:49;;;;;;;1.67;0.82;;;16.20;99.90;;;;;;5030144;28;20022;-58
2023/06/11 02:14:14;;;;;;;0.47;0.47;;;17.80;99.90;;;;;;5032872;28;20028;-60
2023/06/11 02:16:40;;;;;;;0.60;0.50;;;17.60;99.90;;;;;;5029857;28;20385;-57
2023/06/11 02:19:05;;;;;;;0.55;0.50;;;15.80;99.90;;;;;;5032441;28;20035;-58
2023/06/11 02:21:31;;;;;;;0.98;0.50;;;19.00;99.90;;;;;;5031146;28;20029;-57
2023/06/11 02:23:57;;;;;;;0.50;0.45;;;19.30;99.90;;;;;;5029518;28;20116;-58
2023/06/11 02:26:23;;;;;;;0.38;0.38;;;;;;;;;;5030889;28;20049;-56
2023/06/11 02:28:48;;;;;;;0.60;0.50;;;15.90;99.90;;;;;;5029563;28;20037;-58
2023/06/11 02:31:14;;;;;;;0.65;0.65;;;16.40;99.90;;;;;;5030664;28;20036;-56
2023/06/11 02:33:39;;;;;;;0.85;0.55;;;17.70;99.90;;;;;;5031075;28;20120;-56
2023/06/11 02:36:05;;;;;;;0.68;0.55;;;19.20;99.90;;;;;;5030989;28;20034;-56
2023/06/11 02:38:31;;;;;;;0.60;0.52;;;18.30;99.90;;;;;;5028214;28;20124;-59
2023/06/11 02:40:56;;;;;;;0.68;0.68;;;18.00;99.90;;;;;;5030047;28;20427;-57
2023/06/11 02:43:22;;;;;;;0.63;0.43;;;18.00;99.90;;;;;;5030408;28;20022;-57
2023/06/11 02:45:47;;;;;;;0.55;0.50;;;18.50;99.90;;;;;;5031893;28;20024;-58
2023/06/11 02:48:13;;;;;;;0.82;0.50;;;18.10;99.90;;;;;;5030242;28;20025;-57
2023/06/11 02:50:39;;;;;;;0.32;0.22;;;17.00;99.90;;;;;;5030553;28;20029;-58
2023/06/11 02:53:05;;;;;;;0.30;0.30;;;;;;;;;;5029235;28;20380;-57
2023/06/11 02:55:31;;;;;;;0.82;0.65;;;;;;;;;;5029577;28;20512;-59
2023/06/11 02:57:56;;;;;;;1.50;0.57;;;16.10;99.90;;;;;;5029902;28;20037;-58
2023/06/11 03:00:22;;;;;;;0.28;0.28;;;17.70;99.90;;;;;;5030141;28;20476;-57
2023/06/11 03:02:48;;;;;;;0.77;0.73;;;16.90;99.90;;;;;;5028688;28;20033;-57
2023/06/11 03:05:13;;;;;;;0.30;0.30;;;;;;;;;;5029138;28;20032;-57
2023/06/11 03:07:39;;;;;;;0.68;0.60;;;17.90;99.90;;;;;;5030686;28;20092;-58
2023/06/11 03:10:05;;;;;;;0.20;0.20;;;16.20;99.90;;;;;;5030895;28;20029;-58
2023/06/11 03:12:31;;;;;;;0.20;0.20;;;18.10;99.90;;;;;;5028660;28;20064;-57
2023/06/11 03:14:57;;;;;;;0.88;0.73;;;17.60;99.90;;;;;;5028474;28;20406;-57
2023/06/11 03:17:22;;;;;;;0.60;0.60;;;14.80;99.90;;;;;;5011623;28;20138;-56
2023/06/11 03:19:48;;;;;;;0.35;0.20;;;15.20;99.90;;;;;;5029921;28;20207;-57
2023/06/11 03:22:13;;;;;;;0.70;0.60;;;17.60;99.90;;;;;;5027901;28;20034;-57
2023/06/11 03:24:39;;;;;;;0.43;0.43;;;;;;;;;;5030083;28;20024;-56
2023/06/11 03:27:05;;;;;;;0.40;0.40;;;15.80;99.90;;;;;;5031448;28;20026;-57
2023/06/11 03:29:31;;;;;;;0.47;0.30;;;16.80;99.90;;;;;;5030326;28;20484;-56
2023/06/11 03:31:56;;;;;;;0.43;0.40;;;16.80;99.90;;;;;;5029357;28;20421;-56
2023/06/11 03:34:22;;;;;;;0.70;0.50;;;16.80;99.90;;;;;;5029069;28;20021;-56
2023/06/11 03:36:48;;;;;;;0.65;0.50;;;16.10;99.90;;;;;;5030538;28;20087;-56
2023/06/11 03:39:13;;;;;;;0.75;0.45;;;16.80;99.90;;;;;;5030388;28;20082;-57
2023/06/11 03:41:39;;;;;;;0.45;0.45;;;16.80;99.90;;;;;;5028732;28;20476;-57
2023/06/11 03:44:05;;;;;;;1.27;1.15;;;16.80;99.90;;;;;;5030034;28;20056;-56
2023/06/11 03:46:31;;;;;;;0.45;0.45;;;16.80;99.90;;;;;;5028419;28;20420;-56
2023/06/11 03:48:57;;;;;;;0.85;0.45;;;16.80;99.90;;;;;;5029312;28;20025;-56
2023/06/11 03:51:22;;;;;;;0.40;0.40;;;16.80;99.90;;;;;;5029712;28;20029;-56
2023/06/11 03:53:48;;;;;;;0.55;0.50;;;16.90;99.90;;;;;;5028634;28;20040;-57
2023/06/11 03:56:14;;;;;;;0.70;0.65;;;16.90;99.90;;;;;;5028766;28;20091;-57
2023/06/11 03:58:39;;;;;;;0.50;0.50;;;16.80;99.90;;;;;;5026752;28;20066;-56
2023/06/11 04:01:05;;;;;;;0.38;0.38;;;16.80;99.90;;;;;;5029207;28;20120;-56
2023/06/11 04:03:31;;;;;;;0.73;0.68;;;16.80;99.90;;;;;;5030766;28;20025;-56
2023/06/11 04:05:57;;;;;;;1.38;0.90;;;16.70;99.90;;;;;;5030280;28;20033;-57
2023/06/11 04:08:22;;;;;;;0.40;0.40;;;16.70;99.90;;;;;;5030546;28;20098;-57
2023/06/11 04:10:48;;;;;;;0.65;0.57;;;16.70;99.90;;;;;;5030768;28;20022;-56
2023/06/11 04:13:13;;;;;;;0.50;0.50;;;16.70;99.90;;;;;;5022146;28;20504;-55
2023/06/11 04:15:39;;;;;;;0.55;0.40;;;16.80;99.90;;;;;;5024752;28;20041;-56
2023/06/11 04:18:04;;;;;;;0.68;0.40;;;16.80;99.90;;;;;;5030368;28;20064;-57
2023/06/11 04:20:31;;;;;;;0.75;0.50;;;16.80;99.90;;;;;;5030588;28;20017;-56
2023/06/11 04:22:57;;;;;;;0.60;0.60;;;16.90;99.90;;;;;;5030599;28;20030;-58
2023/06/11 04:25:23;;;;;;;0.80;0.60;;;17.00;99.90;;;;;;5030718;28;20101;-58
2023/06/11 04:27:49;;;;;;;0.85;0.52;;;17.00;99.90;;;;;;5030338;28;20100;-58
2023/06/11 04:30:14;;;;;;;1.70;0.60;;;17.00;99.90;;;;;;5030472;28;20048;-56
2023/06/11 04:32:41;;;;;;;0.50;0.32;;;17.00;99.90;;;;;;5030374;28;20029;-57
2023/06/11 04:35:07;;;;;;;0.40;0.40;;;17.20;99.90;;;;;;5030565;28;20029;-56
2023/06/11 04:37:40;;;;;;;0.50;0.50;;;17.10;99.90;;;;;;5030347;28;20037;-56
2023/06/11 04:40:09;;;;;;;1.05;0.40;;;17.20;99.90;;;;;;5030356;28;20056;-57
2023/06/11 04:42:35;;;;;;;0.77;0.52;;;17.30;99.90;;;;;;5030114;28;20032;-57
2023/06/11 04:45:03;;;;;;;0.50;0.50;;;17.30;99.90;;;;;;5029297;28;20148;-57
2023/06/11 04:47:28;;;;;;;0.43;0.43;;;17.40;99.90;;;;;;5030618;28;20037;-57
2023/06/11 04:49:56;;;;;;;0.85;0.73;;;17.40;99.90;;;;;;5029826;28;20025;-57
2023/06/11 04:52:22;;;;;;;0.30;0.30;;;17.40;99.90;;;;;;5030224;28;20025;-56
2023/06/11 04:54:48;;;;;;;1.35;1.00;;;17.50;99.90;;;;;;5030408;28;20030;-57
2023/06/11 04:57:14;;;;;;;0.52;0.50;;;17.60;99.90;;;;;;5029960;28;20049;-57
2023/06/11 04:59:40;;;;;;;0.40;0.40;;;17.70;99.90;;;;;;5030368;28;20109;-59
2023/06/11 05:02:05;;;;;;;0.55;0.50;;;17.70;99.90;;;;;;5030249;28;20030;-58
2023/06/11 05:04:31;;;;;;;0.65;0.55;;;17.70;99.90;;;;;;5030463;28;20034;-57
2023/06/11 05:07:00;;;;;;;0.30;0.22;;;17.80;99.90;;;;;;5030147;28;20540;-57
2023/06/11 05:09:25;;;;;;;0.45;0.40;;;17.80;99.90;;;;;;5030208;28;20369;-57
2023/06/11 05:11:51;;;;;;;0.40;0.40;;;17.90;99.90;;;;;;5033683;28;20495;-57
2023/06/11 05:14:16;;;;;;;0.63;0.60;;;18.00;99.90;;;;;;5032668;28;20499;-56
2023/06/11 05:16:42;;;;;;;0.20;0.20;;;18.20;99.90;;;;;;5033162;28;20037;-57
2023/06/11 05:19:08;;;;;;;0.45;0.43;;;18.30;99.90;;;;;;5033710;28;20431;-57
2023/06/11 05:21:33;;;;;;;0.50;0.50;;;18.50;99.90;;;;;;5033658;28;20350;-57
2023/06/11 05:24:06;;;;;;;0.55;0.40;;;18.60;99.90;;;;;;5033375;28;20029;-58
2023/06/11 05:26:35;;;;;;;0.52;0.52;;;18.70;99.90;;;;;;5033669;28;20025;-56
2023/06/11 05:29:02;;;;;;;1.15;0.60;;;18.80;99.90;;;;;;5033567;28;20029;-56
2023/06/11 05:31:29;;;;;;;0.40;0.40;;;19.00;99.90;;;;;;5033442;28;20507;-56
2023/06/11 05:33:55;;;;;;;2.03;1.00;;;19.10;99.90;;;;;;5033693;28;20028;-57
2023/06/11 05:36:22;;;;;;;0.50;0.50;;;19.30;99.90;;;;;;5033417;28;20055;-57
2023/06/11 05:38:48;;;;;;;0.82;0.60;;;19.60;99.90;;;;;;5033561;28;20033;-57
2023/06/11 05:41:14;;;;;;;0.30;0.30;;;19.80;99.90;;;;;;5033070;28;20018;-58
2023/06/11 05:43:40;;;;;;;0.85;0.73;;;20.00;99.90;;;;;;5033306;28;20092;-58
2023/06/11 05:46:06;;;;;;;0.50;0.50;;;20.40;99.90;;;;;;5033258;28;20053;-57
2023/06/11 05:48:31;;;;;;;1.08;0.90;;;20.70;99.90;;;;;;5033127;28;20389;-57
2023/06/11 05:50:57;;;;;;;1.00;0.73;;;21.30;99.90;;;;;;5033303;28;20033;-58
2023/06/11 05:53:23;;;;;;;0.73;0.50;;;21.80;99.90;;;;;;5033090;28;20076;-58
2023/06/11 05:55:48;;;;;;;1.42;0.90;;;22.40;99.90;;;;;;5033090;28;20053;-59
2023/06/11 05:58:14;;;;;;;0.95;0.70;;;23.00;99.90;;;;;;5032776;28;20444;-58
2023/06/11 06:00:42;;;;;;;0.63;0.63;;;23.60;99.90;;;;;;5033053;28;20373;-57
2023/06/11 06:03:08;;;;;;;1.70;1.08;;;24.10;99.90;;;;;;5033196;28;20018;-58
2023/06/11 06:05:34;;;;;;;1.20;0.95;;;24.50;99.90;;;;;;5032972;28;20037;-58
2023/06/11 06:07:59;;;;;;;1.15;0.98;;;24.90;99.90;;;;;;5033148;28;20033;-58
2023/06/11 06:10:25;;;;;;;0.57;0.57;;;25.30;99.90;;;;;;5032829;28;20036;-57
2023/06/11 06:12:50;;;;;;;1.33;0.80;;;25.70;99.90;;;;;;5032663;28;20461;-58
2023/06/11 06:15:16;;;;;;;0.70;0.70;;;26.00;99.90;;;;;;5032646;28;20039;-58
2023/06/11 06:17:42;;;;;;;1.23;0.90;;;26.40;99.90;;;;;;5032617;28;20037;-58
2023/06/11 06:20:10;;;;;;;1.50;0.93;;;26.80;99.90;;;;;;5032838;28;20018;-57
2023/06/11 06:22:37;;;;;;;1.35;1.23;;;27.20;99.90;;;;;;5031567;28;20030;-57
2023/06/11 06:25:03;;;;;;;0.80;0.80;;;27.60;99.90;;;;;;5032838;28;20490;-58
2023/06/11 06:27:28;;;;;;;2.25;1.77;;;27.70;99.90;;;;;;5032733;28;20044;-59
2023/06/11 06:29:54;;;;;;;1.58;1.20;;;26.90;99.90;;;;;;5032701;28;20423;-58
2023/06/11 06:32:19;;;;;;;1.35;0.82;;;26.70;99.90;;;;;;5032497;28;20044;-59
2023/06/11 06:34:45;;;;;;;1.55;1.20;;;25.90;99.90;;;;;;5014756;28;20020;-59
2023/06/11 06:37:11;;;;;;;2.88;1.77;;;25.20;99.90;;;;;;5032349;28;20030;-59
2023/06/11 06:39:37;;;;;;;1.85;1.23;;;24.80;99.90;;;;;;5014556;28;20387;-58
2023/06/11 06:42:03;;;;;;;0.80;0.75;;;24.30;99.90;;;;;;5031820;28;20029;-59
2023/06/11 06:44:28;;;;;;;1.42;1.27;;;23.90;99.90;;;;;;5032040;28;20033;-59
2023/06/11 06:46:54;;;;;;;0.70;0.70;;;23.80;99.90;;;;;;5032426;28;20037;-59
2023/06/11 06:49:20;;;;;;;1.33;1.05;;;23.90;99.90;;;;;;5032482;28;20029;-60
2023/06/11 06:51:47;;;;;;;1.27;1.15;;;24.30;99.90;;;;;;5032294;28;20028;-58
2023/06/11 06:54:13;;;;;;;1.13;0.82;;;24.20;99.90;;;;;;5032205;28;20033;-58
2023/06/11 06:56:38;;;;;;;1.73;1.38;;;24.30;99.90;;;;;;5031922;28;20396;-59
2023/06/11 06:59:04;;;;;;;0.80;0.70;;;24.30;99.90;;;;;;5032374;28;20033;-60
2023/06/11 07:01:30;;;;;;;2.00;1.20;;;24.30;99.90;;;;;;5031999;28;20032;-56
2023/06/11 07:03:56;;;;;;;1.38;0.93;;;24.10;99.90;;;;;;5032104;28;20025;-58
2023/06/11 07:06:21;;;;;;;1.20;1.10;;;24.10;99.90;;;;;;5031700;28;20616;-57
2023/06/11 07:08:47;;;;;;;0.65;0.60;;;24.20;99.90;;;;;;5029586;28;20100;-58
2023/06/11 07:11:15;;;;;;;1.15;0.93;;;25.70;99.90;;;;;;5031989;28;20040;-58
2023/06/11 07:13:40;;;;;;;1.65;1.10;;;25.50;99.90;;;;;;5030780;28;20026;-59
2023/06/11 07:16:06;;;;;;;1.38;1.15;;;26.40;99.90;;;;;;5031777;28;20435;-58
2023/06/11 07:18:32;;;;;;;1.52;0.93;;;27.00;99.90;;;;;;5013500;28;20399;-58
2023/06/11 07:20:58;;;;;;;1.20;0.90;;;27.40;99.90;;;;;;5031608;28;20052;-57
2023/06/11 07:23:24;;;;;;;1.55;1.05;;;27.80;99.90;;;;;;5031557;28;20473;-58
2023/06/11 07:25:50;;;;;;;1.00;0.90;;;28.00;99.90;;;;;;5031784;28;20075;-58
2023/06/11 07:28:16;;;;;;;1.73;1.17;;;27.80;99.90;;;;;;5030889;28;20469;-58
2023/06/11 07:30:41;;;;;;;1.02;0.90;;;27.50;99.90;;;;;;5031155;28;20040;-58
2023/06/11 07:33:08;;;;;;;1.73;1.42;;;27.20;99.90;;;;;;5031118;28;20112;-58
2023/06/11 07:35:33;;;;;;;0.95;0.80;;;26.90;99.90;;;;;;5012947;28;20031;-58
2023/06/11 07:37:59;;;;;;;1.23;1.00;;;26.50;99.90;;;;;;5030721;28;20033;-58
2023/06/11 07:40:25;;;;;;;1.00;0.77;;;26.20;99.90;;;;;;5030973;28;20022;-58
2023/06/11 07:42:50;;;;;;;1.23;1.13;;;26.10;99.90;;;;;;5030577;28;20025;-58
2023/06/11 07:45:16;;;;;;;1.33;0.98;;;25.80;99.90;;;;;;5030872;28;20025;-58
2023/06/11 07:47:42;;;;;;;1.30;1.17;;;25.70;99.90;;;;;;5030610;28;20022;-59
2023/06/11 07:50:09;;;;;;;1.60;1.30;;;25.50;99.90;;;;;;5013580;28;20026;-58
2023/06/11 07:52:35;;;;;;;1.20;1.10;;;25.50;99.90;;;;;;5012869;28;20075;-59
2023/06/11 07:55:02;;;;;;;1.65;1.55;;;25.50;99.90;;;;;;5014004;28;20072;-59
2023/06/11 07:57:27;;;;;;;0.60;0.40;;;25.50;99.90;;;;;;5018126;28;20671;-59
2023/06/11 07:59:53;;;;;;;1.13;0.75;;;25.50;99.90;;;;;;5017147;28;20024;-58
2023/06/11 08:02:19;;;;;;;1.50;1.10;;;25.40;99.90;;;;;;5019589;28;20044;-59
2023/06/11 08:04:45;;;;;;;1.50;1.00;;;25.40;99.90;;;;;;5026462;28;20048;-58
2023/06/11 08:07:12;;;;;;;0.93;0.82;;;25.50;99.90;;;;;;5028612;28;20021;-59
2023/06/11 08:09:38;;;;;;;1.00;0.90;;;25.30;99.90;;;;;;5028086;28;20025;-58
2023/06/11 08:12:05;;;;;;;0.90;0.73;;;25.40;99.90;;;;;;5025036;28;20022;-58
2023/06/11 08:14:31;;;;;;;1.30;1.10;;;25.40;99.90;;;;;;5021822;28;20051;-58
2023/06/11 08:16:57;;;;;;;1.55;1.30;;;25.40;99.90;;;;;;5014489;28;20065;-58
2023/06/11 08:19:23;;;;;;;0.90;0.90;;;25.20;99.90;;;;;;5015476;28;20507;-58
2023/06/11 08:21:48;;;;;;;3.13;1.13;;;25.30;99.90;;;;;;5019214;28;20040;-58
2023/06/11 08:24:14;;;;;;;1.65;0.98;;;25.30;99.90;;;;;;5017710;28;20045;-59
2023/06/11 08:26:40;;;;;;;0.68;0.68;;;25.20;99.90;;;;;;5012769;28;20543;-58
2023/06/11 08:29:05;;;;;;;1.05;0.80;;;25.30;99.90;;;;;;5016616;28;20061;-57
2023/06/11 08:31:32;;;;;;;1.05;0.90;;;25.40;99.90;;;;;;5013523;28;20029;-58
2023/06/11 08:33:58;;;;;;;0.77;0.77;;;25.40;99.90;;;;;;5013468;28;20080;-58
2023/06/11 08:36:25;;;;;;;1.40;1.05;;;25.40;99.90;;;;;;5028486;28;20025;-57
2023/06/11 08:38:51;;;;;;;0.65;0.65;;;25.40;99.90;;;;;;5028871;28;20045;-58
2023/06/11 08:41:17;;;;;;;0.93;0.85;;;25.50;99.90;;;;;;5026802;28;20029;-56
2023/06/11 08:43:42;;;;;;;0.80;0.70;;;25.50;99.90;;;;;;5020497;28;20457;-56
2023/06/11 08:46:15;;;;;;;0.90;0.70;;;25.50;99.90;;;;;;5017957;28;20515;-57
2023/06/11 08:48:44;;;;;;;1.50;0.85;;;25.50;99.90;;;;;;5021857;28;20112;-58
2023/06/11 08:51:12;;;;;;;1.70;1.42;;;25.60;99.90;;;;;;5021237;28;20045;-58
2023/06/11 08:53:38;;;;;;;0.93;0.85;;;25.60;99.90;;;;;;5025129;28;20048;-57
2023/06/11 08:56:06;;;;;;;1.27;0.77;;;25.70;99.90;;;;;;5027283;28;20225;-58
2023/06/11 08:58:34;;;;;;;2.05;0.98;;;25.90;99.90;;;;;;5033903;28;20083;-57
2023/06/11 09:01:10;;;;;;;0.70;0.70;;;26.00;99.90;;;;;;5034233;28;20080;-57
2023/06/11 09:03:36;;;;;;;1.80;1.10;;;26.40;99.90;;;;;;5033894;28;20687;-58
2023/06/11 09:06:02;;;;;;;1.30;1.10;;;26.90;99.90;;;;;;5025901;28;20045;-58
2023/06/11 09:08:28;;;;;;;1.15;1.00;;;27.30;99.90;;;;;;5016532;28;20065;-58
2023/06/11 09:10:54;;;;;;;1.02;0.82;;;27.50;99.90;;;;;;5033775;28;20038;-57
2023/06/11 09:13:25;;;;;;;0.70;0.70;;;27.80;99.90;;;;;;5026958;28;20113;-58
2023/06/11 09:15:58;;;;;;;1.30;1.10;;;28.10;99.90;;;;;;5019319;28;20018;-57
2023/06/11 09:18:26;;;;;;;1.48;0.73;;;28.60;99.90;;;;;;4998254;28;20037;-57
2023/06/11 09:20:57;;;;;;;1.17;1.05;;;29.10;99.90;;;;;;5016829;28;20018;-57
2023/06/11 09:23:27;;;;;;;1.33;1.13;;;29.90;99.90;;;;;;5023771;28;20044;-57
2023/06/11 09:25:53;;;;;;;4.13;1.60;;;30.50;99.90;;;;;;5028501;28;20159;-56
2023/06/11 09:28:19;;;;;;;1.75;1.17;;;31.40;97.70;;;;;;5025251;28;20486;-57
2023/06/11 09:30:57;;;;;;;1.85;1.25;;;31.70;98.30;;;;;;5025406;28;20026;-58
2023/06/11 09:33:24;;;;;;;1.88;1.17;;;31.90;97.20;;;;;;5021286;28;20057;-56
2023/06/11 09:35:50;;;;;;;1.15;1.05;;;31.50;94.90;;;;;;5023418;28;20018;-58
2023/06/11 09:38:17;;;;;;;2.50;1.55;;;31.20;95.80;;;;;;5014888;28;20123;-57
2023/06/11 09:40:47;;;;;;;1.65;1.30;;;31.20;96.10;;;;;;5013858;28;20444;-58
2023/06/11 09:43:14;;;;;;;1.15;1.05;;;31.80;95.30;;;;;;5029777;28;20043;-58
2023/06/11 09:45:40;;;;;;;1.88;1.17;;;32.30;93.30;;;;;;5033199;28;20476;-57
2023/06/11 09:48:09;;;;;;;1.55;1.15;;;32.80;92.10;;;;;;5032822;28;20699;-58
2023/06/11 09:50:35;;;;;;;2.38;1.42;;;33.30;91.50;;;;;;5027300;28;20018;-56
2023/06/11 09:53:03;;;;;;;1.40;1.30;;;33.60;89.10;;;;;;5014463;28;20109;-57
2023/06/11 09:55:31;;;;;;;1.27;1.00;;;33.90;89.90;;;;;;5021032;28;20136;-58
2023/06/11 09:57:58;;;;;;;1.50;1.05;;;33.90;91.40;;;;;;5032720;28;20064;-56
2023/06/11 10:00:24;;;;;;;1.30;1.05;;;34.30;86.60;;;;;;5026148;28;20037;-57
2023/06/11 10:02:49;;;;;;;1.17;1.02;;;34.40;85.40;;;;;;5017847;28;20100;-56
2023/06/11 10:05:17;;;;;;;2.15;1.40;;;34.40;84.00;;;;;;5014490;28;20115;-59
2023/06/11 10:07:53;;;;;;;2.70;1.60;;;34.30;80.70;;;;;;5015059;28;20435;-58
2023/06/11 10:10:21;;;;;;;1.40;1.10;;;34.40;81.00;;;;;;5032731;28;20075;-56
2023/06/11 10:12:54;;;;;;;1.67;1.40;;;34.40;80.90;;;;;;5030368;28;20079;-57
2023/06/11 10:15:24;;;;;;;1.23;1.10;;;34.50;85.70;;;;;;5012651;28;20025;-56
2023/06/11 10:17:54;;;;;;;1.60;1.23;;;34.60;76.90;;;;;;5026292;28;20056;-58
2023/06/11 10:20:31;;;;;;;1.65;1.30;;;34.80;79.40;;;;;;5030183;28;20191;-57
2023/06/11 10:23:11;;;;;;;1.90;1.13;;;35.10;76.70;;;;;;5028696;28;20484;-55
2023/06/11 10:25:39;;;;;;;1.55;1.15;;;35.40;80.00;;;;;;5024531;28;20032;-55
2023/06/11 10:28:06;;;;;;;;;;;35.60;77.40;;;;;;5032223;28;20025;-56
2023/06/11 10:30:32;;;;;;;1.45;1.25;;;35.40;74.60;;;;;;5028261;28;19905;-57
2023/06/11 10:32:58;;;;;;;1.50;1.27;;;35.30;74.30;;;;;;5023922;28;20028;-54
2023/06/11 10:35:28;;;;;;;1.65;1.17;;;35.20;74.90;;;;;;5029864;28;20029;-54
2023/06/11 10:38:02;;;;;;;1.75;1.48;;;35.00;73.40;;;;;;5017317;28;20065;-57
2023/06/11 10:40:38;;;;;;;2.33;1.70;;;34.80;74.70;;;;;;5024097;28;20045;-55
2023/06/11 10:43:21;;;;;;;1.58;1.38;;;34.70;77.10;;;;;;5025147;28;20029;-54
2023/06/11 10:45:59;;;;;;;1.80;1.45;;;34.80;76.90;;;;;;5014343;28;20026;-55
2023/06/11 10:48:30;;;;;;;1.90;1.48;;;34.70;74.20;;;;;;5024623;28;20034;-55
2023/06/11 10:51:02;;;;;;;1.40;1.23;;;34.80;76.80;;;;;;5028931;28;20029;-53
2023/06/11 10:53:42;;;;;;;1.48;1.20;;;35.00;77.50;;;;;;5028371;28;20105;-55
2023/06/11 10:56:11;;;;;;;1.30;1.20;;;35.10;75.00;;;;;;5032410;28;20076;-55
2023/06/11 10:58:38;;;;;;;1.40;1.13;;;35.20;75.00;;;;;;5032146;28;20543;-57
2023/06/11 11:01:09;;;;;;;1.40;1.10;;;35.30;75.50;;;;;;5032141;28;20025;-57
2023/06/11 11:03:35;;;;;;;1.02;0.93;;;35.40;74.10;;;;;;5031869;28;20099;-55
2023/06/11 11:06:01;;;;;;;1.65;1.40;;;35.50;74.80;;;;;;5031919;28;20439;-58
2023/06/11 11:08:28;;;;;;;1.40;1.20;;;35.50;76.50;;;;;;5020870;28;20033;-55
2023/06/11 11:11:01;;;;;;;2.17;1.50;;;35.60;74.60;;;;;;5012777;28;20028;-55
2023/06/11 11:13:28;;;;;;;0.98;0.88;;;35.70;73.50;;;;;;5025302;28;20079;-55
2023/06/11 11:15:54;;;;;;;1.93;1.33;;;35.80;75.70;;;;;;5027680;28;20498;-55
2023/06/11 11:18:19;;;;;;;1.20;1.10;;;36.00;70.40;;;;;;5029730;28;20566;-52
2023/06/11 11:20:45;;;;;;;2.03;1.48;;;35.80;72.00;;;;;;5028531;28;20079;-55
2023/06/11 11:23:11;;;;;;;1.27;1.00;;;35.60;69.50;;;;;;5027464;28;20034;-56
2023/06/11 11:25:38;;;;;;;1.05;0.90;;;35.30;73.50;;;;;;5018385;28;20179;-55
2023/06/11 11:28:04;;;;;;;1.10;0.98;;;35.10;73.80;;;;;;5025726;28;20029;-54
2023/06/11 11:30:29;;;;;;;1.55;1.20;;;35.20;79.60;;;;;;5025348;28;20033;-55
2023/06/11 11:32:56;;;;;;;2.08;1.48;;;35.20;72.70;;;;;;5023195;28;20435;-53
2023/06/11 11:35:22;;;;;;;1.65;1.27;;;35.10;76.90;;;;;;5023763;28;20492;-50
2023/06/11 11:37:52;;;;;;;1.45;1.23;;;35.30;73.10;;;;;;5025883;28;20037;-54
2023/06/11 11:40:19;;;;;;;1.52;1.20;;;35.50;73.20;;;;;;5020282;28;20022;-56
2023/06/11 11:42:49;;;;;;;2.17;1.43;;;39.20;73.50;;;;;;5023743;28;20025;-55
2023/06/11 11:45:15;;;;;;;1.55;1.27;;;35.50;73.50;;;;;;5024415;28;20100;-52
2023/06/11 11:47:50;;;;;;;1.35;1.23;;;35.60;73.70;;;;;;5015686;28;20078;-49
2023/06/11 11:50:25;;;;;;;1.98;1.30;;;35.60;74.00;;;;;;5027655;28;20444;-50
2023/06/11 11:53:18;;;;;;;1.23;1.13;;;35.80;77.40;;;;;;5030701;28;20028;-49
2023/06/11 11:55:45;;;;;;;1.70;1.48;;;35.80;73.40;;;;;;5028236;28;20053;-52
2023/06/11 11:58:17;;;;;;;1.47;1.10;;;35.50;69.70;;;;;;5026975;28;20052;-51
2023/06/11 12:00:51;;;;;;;1.40;1.17;;;35.50;71.20;;;;;;5012490;28;20080;-51
2023/06/11 12:03:23;;;;;;;1.17;1.02;;;35.40;72.20;;;;;;5026484;28;20095;-54
2023/06/11 12:05:57;;;;;;;1.55;1.23;;;35.20;70.80;;;;;;5023204;28;20025;-56
2023/06/11 12:08:22;;;;;;;1.17;1.05;;;34.80;71.50;;;;;;5029356;28;20029;-54
2023/06/11 12:10:48;;;;;;;1.25;1.15;;;34.70;73.10;;;;;;5029449;28;20112;-56
2023/06/11 12:13:14;;;;;;;1.20;1.02;;;34.40;70.40;;;;;;5029301;28;20388;-52
2023/06/11 12:15:40;;;;;;;1.40;1.30;;;34.40;70.40;;;;;;5029663;28;20025;-58
2023/06/11 12:18:05;;;;;;;1.30;1.10;;;34.40;71.70;;;;;;5026807;28;20045;-53
2023/06/11 12:20:31;;;;;;;1.35;1.10;;;34.40;74.50;;;;;;5028248;28;20112;-56
2023/06/11 12:22:57;;;;;;;1.30;1.20;;;34.00;67.00;;;;;;5012508;28;20409;-56
2023/06/11 12:25:23;;;;;;;1.30;1.17;;;33.80;71.30;;;;;;5027987;28;20492;-58
2023/06/11 12:27:49;;;;;;;2.03;1.33;;;33.80;74.50;;;;;;5028491;28;20484;-54
2023/06/11 12:30:15;;;;;;;1.88;1.02;;;33.90;76.90;;;;;;5025569;28;20072;-53
2023/06/11 12:32:41;;;;;;;1.85;1.45;;;33.90;72.20;;;;;;5028239;28;20101;-55
2023/06/11 12:35:08;;;;;;;1.23;0.95;;;33.90;68.00;;;;;;5028006;28;20083;-55
2023/06/11 12:37:33;;;;;;;1.13;1.00;;;33.70;70.90;;;;;;5015485;28;20105;-55
2023/06/11 12:40:00;;;;;;;1.70;1.50;;;33.50;71.20;;;;;;5028835;28;20451;-56
2023/06/11 12:42:27;;;;;;;1.40;1.27;;;33.60;70.60;;;;;;5024665;28;20511;-53
2023/06/11 12:44:53;;;;;;;1.40;1.30;;;33.50;73.40;;;;;;5024732;28;20037;-55
2023/06/11 12:47:18;;;;;;;1.70;1.08;;;33.20;71.70;;;;;;5009441;28;20026;-58
2023/06/11 12:49:45;;;;;;;1.27;1.17;;;33.10;74.60;;;;;;5025420;28;20026;-56